Pour + de renseignements cliquez ici !!
Accueil Courir en France
Pour obtenir un devis, cliquez ici !!!

Classement Général au Scratch

Utilisez ce formulaire pour calculer votre vitesse
Les décimales, doivent toujours être séparées par un POINT

Distance

Heures

Minutes

Secondes

Km/h

Imprimez votre diplôme !!!
Epreuve chronométrée par courirenfrance
Toute reproduction intégrale ou partielle sans le consentement préalable de courirenfrance serait illicite et constituerait une contrefaçon sanctionnée par la loi en vigueur propre au code de la propriété intellectuelle.
Classement des 21 Km
Région ou Ville Distance Nom de l'Epreuve Date Rentrants
Aubagne - [13] 11 Km Trail de la Font de Mai 21/05/2017 228
Pl Nom Prénom Doss. Cat. Club Temps
151 SCAFFA VANESSA 289 M1F 15  AA ALLAUDIENNE 1:29:09
152 CALMELS FRANCELINE 24 M1F 16  INST PAOLI CALMETTES 1:29:22
153 HUGUES CHRISTINE 277 M2F 5  GEM TRI ATHLE 1:29:34
154 CHARREL REMI 34 M2M 22  SMUC 1:29:39
155 MOLINES OLIVIER 138 M1M 39  OCCP LA CIOTAT 1:29:47
156 KAFTANDJIAN JULIEN 98 SEM 34  ENDURANCE 13 MSEILLE 1:30:14
157 MAIGNE PHILIPPE 121 M2M 23  INST PAOLI CALMETTES 1:30:28
158 DEHAYE VERONIQUE 52 M1F 17  AA ALLAUDIENNE 1:31:11
159 CHASTEL AGNES 35 M2F 6  JOGGEURS AUBAGNAIS 1:31:15
160 MANAZ ROGER 124 M3M 7  USTM JOGGING 1:31:59
161 TEISSEIRE RENE 177 M3M 8  JOGGEURS AUBAGNAIS 1:32:00
162 BRUEL FREDERIC 23 M4M 2  SCO STE MARGUERITE 1:32:18
163 LEPORINI ROBERT 112 M2M 24  OCCP LA CIOTAT 1:32:32
164 GHASSAOUI FADELA 318 M1F 18  AS CARNOUX JOGGING 1:32:38
165 ARNAUD NATHALIE 5 M2F 7  SCO STE MARGUERITE 1:33:35
166 GONZALES MARIE THERESE 78 M3F 2  OCCP LA CIOTAT 1:33:42
167 MORTELETTE MICHEL 142 M3M 9  ACF CASSIS 1:33:54
168 MARCERON GUY 312 M3M 10  ACF CASSIS 1:33:55
169 BLOT CAROLINE 18 M1F 19  MARSEILLE 1:34:03
170 HUBERT OLIVIER 303 M1M 40  MARSEILLE 1:34:11
171 GENNISLEVA M 300 M1M 41  MARSEILLE 1:34:13
172 LENHART STEPHANIE 280 M2F 8  COURIR CONTRE LE VENT 1:34:14
173 ARESU JOSE 4 M1M 42  ASS ANDREA 1:34:15
174 CANALE MURIEL 27 M1F 20  MARSEILLE 1:34:21
175 PASSA EMILE 306 M4M 3  RUNNING MARSEILLE 1:34:27
176 DEFIX DANIELLE 51 M2F 9  JOGGEURS AUBAGNAIS 1:35:15
177 GOUGASSIAN MELISSA 80 SEF 16  LA CIOTAT 1:35:16
178 ROMERA YANN 165 M1M 43  CSP CG 13 1:35:36
179 ROMERA CELINE 163 M1F 21  CSP CG 13 1:35:38
180 MEDARIAN CEDRIC 328 M1M 44  SMUC 1:36:30
181 MARSILLA ALEXANDRA 128 SEF 17  OCCP LA CIOTAT 1:36:58
182 GAUDILLERE GAELLE 73 SEF 18  AIX ATHLE PROVENCE 1:36:59
183 SERRA PATRICE 174 SEM 35  KM 42 195 MARSEILLE 1:37:23
184 MEYER CHANTAL 134 SEF 19  TOULON 1:38:17
185 JOSEPH CHRISTOPHE 296 M1M 45  AUBAGNE 1:38:26
186 FRANCESCHIN BERNARD 274 M2M 25  AUBAGNE 1:38:57
187 COLLIN VIRGINIE 44 M1F 22  TEAM VENDOME 1:39:20
188 CHABBERT FRANCK 33 SEM 36  INST PAOLI CALMETTES 1:39:31
189 MENZEL PATRICK 130 M3M 11  USTM JOGGING 1:39:46
190 DELGRANGE CHARLOTTE 53 SEF 20  LA CIOTAT 1:39:47
191 MERLIN KHEIRA 131 SEF 21  USTM JOGGING 1:40:31
192 PORTAL BRICE 153 SEM 37  MARSEILLE 1:41:26
193 RIPIEGO PHILIPPE 161 M2M 26  MARSEILLE 1:41:34
194 CURNIER LAURA 47 SEF 22  ACF CASSIS 1:41:36
195 CURNIER CHRISTIAN 46 M3M 12  ACF CASSIS 1:41:37
196 MESTRE MARC 133 M2M 27  CABRIERES 1:42:53
197 MESTRE DANIELE 132 M2F 10  CABRIERES 1:42:54
198 VUOLO PIERRE 191 M1M 46  LES COPAINS D ABORD 1:44:14
199 FROSSARD CAROLINE 71 SEF 23  DRAGUIGNAN 1:45:00
200 ARDIGIER EMMANUELLE 3 M1F 23  AC CAPU BIANCU 1:46:06
201 BALSEN PHILIPPE 8 M2M 28  AC CAPU BIANCU 1:46:07
202 MARIO SOPHIE 127 M1F 24  LA CIOTAT 1:46:08
203 ROMERA OLIVIA 164 M1F 25  LA CIOTAT 1:46:09
204 BONNEIL CAROLE 20 M1F 26  MARSEILLE 1:46:54
205 CODINACH AGNES 41 M1F 27  AUBAGNE 1:47:20
206 CODINACH DAVID 42 M1M 47  AUBAGNE 1:47:21
207 CYPRIOU GEORGES 305 M3M 13  MARSEILLE 1:47:37
208 LATACHE PASCALE 104 M1F 28  OCCP LA CIOTAT 1:47:50
209 SEREK STEPHANE 173 M2M 29  FOULEE DE GREASQUE 1:50:45
210 LHEUREUX ELODIE 113 SEF 24  ST ZACHARIE 1:51:39
211 MANAZ SYLVIE 125 M1F 29  USTM JOGGING 1:51:40
212 DAUVERCHAIN KATIA 49 M1F 30  MIGNALOUX BVOIR 86 1:52:25
213 ENSUQUE ALAIN 63 M2M 30  ALMOST ATHLETES 1:52:28
214 HUYNH WALTER 92 M2M 31  AUBAGNE 1:53:11
215 SAVORNIN INGRID 168 M1F 31  LES COPAINS D ABORD 1:53:58
216 HUGON SYLVIE 88 M2F 11  LES COPAINS D ABORD 1:53:59
217 HUGON YVES 90 M2M 32  LES COPAINS D ABORD 1:54:00
218 REVEILLET CHARLOTTE 159 SEF 25  LAMBESC 1:56:01
219 CAMM CHRISTEL 309 M2F 12  SMUC 1:56:06
220 ENSUQUE FLORIANE 64 SEF 26  LA DESTROUSSE 2:00:28
221 PRADELLES ELSA 286 M1F 32  AUBAGNE 2:01:44
222 FERRAIOLO RAYMOND 273 M4M 4  AUBAGNE 2:01:45
223 VASSEUR ISABELLE 183 M1F 33  KM 42 195 MARSEILLE 2:04:07
224 LENOIR CLARA 110 SEF 27  MIMET 2:08:56
225 LENOIR CHRISTINE 109 M2F 13  MIMET 2:15:56
226 FRANCESCHI LAURE 70 SEF 28  LES DUNES D ESPOIR 2:22:06
227 BARRAIL MARTINE 12 M2F 14  ARRAS 62 2:25:30
228 BARRAIL MARCEAU 11 M2M 33  ARRAS 62 2:25:33
P 1 - P 2
 Recherchez un Nom, un Club, une catégorie ou un N° de Dossard :    

Vous disposez d'un droit d'accès, de modification, de rectification et de suppression des données qui vous concernent (art. 34 de la loi "Informatiques et libertés du 6 janvier 1978). Pour l'exercer, adressez vous à alain
 
Copyright © 1999-2018 Courir en France
Tous droits Réservés